Time;durP1;ratioP1;P1;durP2;ratioP2;P2;SDS_P1;SDS_P2;PMS_P1;PMS_P2;Temp;Humidity;BMP_temperature;BMP_pressure;BME280_temperature;BME280_humidity;BME280_pressure;Samples;Min_cycle;Max_cycle;Signal;HPM_P1;HPM_P2
2022/09/21 00:00:05;;;;;;;9.33;2.57;;;8.20;99.90;;;;;;5224981;28;20210;-49
2022/09/21 00:02:35;;;;;;;2.43;2.33;;;8.20;99.90;;;;;;5223037;28;20190;-48
2022/09/21 00:05:07;;;;;;;2.10;2.00;;;8.20;99.90;;;;;;5221237;28;20807;-48
2022/09/21 00:07:37;;;;;;;4.97;2.73;;;8.20;99.90;;;;;;5224950;28;20213;-49
2022/09/21 00:10:08;;;;;;;2.53;2.33;;;8.20;99.90;;;;;;5228489;28;20432;-48
2022/09/21 00:12:39;;;;;;;2.67;2.03;;;8.20;99.90;;;;;;5223344;28;20286;-49
2022/09/21 00:15:11;;;;;;;2.80;2.60;;;8.20;99.90;;;;;;5208474;28;20429;-49
2022/09/21 00:17:43;;;;;;;2.90;2.70;;;8.20;99.90;;;;;;5231896;28;20456;-48
2022/09/21 00:20:14;;;;;;;5.80;2.30;;;8.20;99.90;;;;;;5235808;28;20995;-48
2022/09/21 00:22:46;;;;;;;1.93;1.93;;;8.20;99.90;;;;;;5214169;28;20433;-49
2022/09/21 00:25:18;;;;;;;2.97;2.07;;;8.20;99.90;;;;;;5224638;28;20438;-49
2022/09/21 00:27:50;;;;;;;3.03;2.63;;;8.20;99.90;;;;;;5242041;28;20817;-48
2022/09/21 00:30:21;;;;;;;2.87;2.60;;;8.10;99.90;;;;;;5223320;28;20908;-48
2022/09/21 00:32:52;;;;;;;2.47;2.33;;;8.10;99.90;;;;;;5208002;28;20829;-48
2022/09/21 00:35:23;;;;;;;2.27;2.17;;;8.10;99.90;;;;;;5213512;28;20446;-47
2022/09/21 00:37:54;;;;;;;3.00;2.20;;;8.10;99.90;;;;;;5230121;28;20522;-48
2022/09/21 00:40:24;;;;;;;2.47;2.37;;;8.10;99.90;;;;;;5231679;28;20290;-49
2022/09/21 00:43:11;;;;;;;2.83;2.10;;;8.10;99.90;;;;;;5224342;28;20187;-51
2022/09/21 00:45:47;;;;;;;2.60;2.40;;;8.10;99.90;;;;;;5229568;28;20651;-48
2022/09/21 00:48:17;;;;;;;3.93;2.23;;;8.10;99.90;;;;;;5233312;28;20967;-48
2022/09/21 00:50:52;;;;;;;2.73;2.63;;;8.10;99.90;;;;;;5228235;28;20430;-49
2022/09/21 00:53:24;;;;;;;2.50;2.40;;;8.10;99.90;;;;;;5229042;28;20216;-47
2022/09/21 00:55:57;;;;;;;3.80;2.30;;;8.00;99.90;;;;;;5227919;28;20952;-48
2022/09/21 00:58:32;;;;;;;3.27;3.03;;;8.00;99.90;;;;;;5224127;28;20878;-47
2022/09/21 01:01:03;;;;;;;3.30;3.10;;;8.00;99.90;;;;;;5224921;28;20409;-48
2022/09/21 01:03:34;;;;;;;2.20;2.20;;;8.00;99.90;;;;;;5230435;28;20429;-48
2022/09/21 01:06:04;;;;;;;1.83;1.77;;;8.00;99.90;;;;;;5217347;28;20202;-48
2022/09/21 01:08:36;;;;;;;2.43;2.33;;;8.00;99.90;;;;;;5228864;28;20195;-49
2022/09/21 01:11:45;;;;;;;2.50;2.30;;;8.00;99.90;;;;;;5214253;28;20184;-48
2022/09/21 01:14:31;;;;;;;3.43;2.80;;;8.00;99.90;;;;;;5225191;28;20468;-48
2022/09/21 01:17:34;;;;;;;2.40;2.20;;;8.00;99.90;;;;;;5220428;28;20442;-48
2022/09/21 01:20:24;;;;;;;2.17;2.07;;;8.00;99.90;;;;;;5224072;28;20421;-48
2022/09/21 01:23:26;;;;;;;2.50;2.40;;;8.00;99.90;;;;;;5221359;28;20445;-48
2022/09/21 01:26:10;;;;;;;3.73;2.50;;;7.90;99.90;;;;;;5233943;28;20466;-48
2022/09/21 01:29:05;;;;;;;2.60;2.40;;;7.90;99.90;;;;;;5231912;28;21020;-48
2022/09/21 01:31:48;;;;;;;3.20;1.93;;;7.90;99.90;;;;;;5232847;28;20587;-47
2022/09/21 01:34:58;;;;;;;2.57;2.47;;;7.90;99.90;;;;;;5225114;28;20803;-48
2022/09/21 01:37:37;;;;;;;2.13;2.13;;;7.90;99.90;;;;;;5224937;28;20870;-48
2022/09/21 01:40:14;;;;;;;2.33;2.23;;;7.90;99.90;;;;;;5221175;28;20497;-48
2022/09/21 01:42:48;;;;;;;8.50;2.30;;;7.90;99.90;;;;;;5224091;28;20897;-48
2022/09/21 01:45:26;;;;;;;2.20;2.10;;;7.90;99.90;;;;;;5220185;28;20971;-51
2022/09/21 01:48:00;;;;;;;2.23;2.13;;;7.90;99.90;;;;;;5226963;28;20456;-49
2022/09/21 01:50:39;;;;;;;2.37;2.17;;;7.80;99.90;;;;;;5224735;28;20444;-49
2022/09/21 01:53:19;;;;;;;2.63;2.30;;;7.80;99.90;;;;;;5226661;28;20625;-47
2022/09/21 01:56:12;;;;;;;7.23;2.27;;;7.80;99.90;;;;;;5225472;28;20450;-48
2022/09/21 01:59:20;;;;;;;3.03;2.33;;;7.80;99.90;;;;;;5211439;28;20783;-48
2022/09/21 02:01:56;;;;;;;2.30;2.10;;;7.80;99.90;;;;;;5237510;28;20946;-47
2022/09/21 02:04:27;;;;;;;2.97;2.50;;;7.80;99.90;;;;;;5222318;28;20503;-47
2022/09/21 02:06:58;;;;;;;2.50;2.40;;;7.70;99.90;;;;;;5223902;28;20438;-48
2022/09/21 02:09:28;;;;;;;5.63;2.83;;;7.70;99.90;;;;;;5225762;28;20183;-46
2022/09/21 02:12:01;;;;;;;3.30;3.10;;;7.70;99.90;;;;;;5228877;28;20202;-47
2022/09/21 02:14:32;;;;;;;3.57;3.27;;;7.70;99.90;;;;;;5222719;28;20853;-49
2022/09/21 02:17:20;;;;;;;3.23;2.93;;;7.70;99.90;;;;;;5222464;28;20470;-48
2022/09/21 02:20:16;;;;;;;3.10;2.90;;;7.70;99.90;;;;;;5235620;28;20434;-48
2022/09/21 02:23:02;;;;;;;2.97;2.87;;;7.70;99.90;;;;;;5226398;28;20448;-47
2022/09/21 02:25:56;;;;;;;3.30;3.07;;;7.70;99.90;;;;;;5225158;28;20430;-47
2022/09/21 02:28:50;;;;;;;2.70;2.40;;;7.70;99.90;;;;;;5222716;28;21014;-48
2022/09/21 02:31:21;;;;;;;2.50;2.40;;;7.70;99.90;;;;;;5227015;28;20768;-50
2022/09/21 02:34:00;;;;;;;5.50;2.60;;;7.70;99.90;;;;;;5228620;28;20459;-47
2022/09/21 02:36:42;;;;;;;2.50;2.40;;;7.70;99.90;;;;;;5225905;28;20736;-47
2022/09/21 02:39:20;;;;;;;4.00;3.10;;;7.70;99.90;;;;;;5223943;28;20434;-47
2022/09/21 02:42:13;;;;;;;7.33;2.80;;;7.70;99.90;;;;;;5220971;28;20841;-48
2022/09/21 02:44:51;;;;;;;3.77;2.87;;;7.70;99.90;;;;;;5215483;28;20500;-50
2022/09/21 02:47:32;;;;;;;6.50;2.50;;;7.70;99.90;;;;;;5225034;28;20485;-49
2022/09/21 02:50:09;;;;;;;8.73;2.87;;;7.70;99.90;;;;;;5222418;28;20436;-48
2022/09/21 02:52:43;;;;;;;3.57;2.80;;;7.60;99.90;;;;;;5225553;28;20467;-48
2022/09/21 02:55:16;;;;;;;7.10;2.80;;;7.60;99.90;;;;;;5226877;28;20457;-49
2022/09/21 02:57:48;;;;;;;5.27;2.67;;;7.60;99.90;;;;;;5220024;28;20449;-47
2022/09/21 03:00:19;;;;;;;4.37;3.40;;;7.60;99.90;;;;;;5226847;28;20445;-49
2022/09/21 03:02:49;;;;;;;2.97;2.80;;;7.60;99.90;;;;;;5219876;28;20941;-48
2022/09/21 03:05:20;;;;;;;6.60;3.40;;;7.70;99.90;;;;;;5226492;28;20278;-48
2022/09/21 03:07:51;;;;;;;9.93;3.13;;;7.70;99.90;;;;;;5223852;28;20253;-49
2022/09/21 03:10:21;;;;;;;5.57;3.10;;;7.70;99.90;;;;;;5235018;28;20592;-48
2022/09/21 03:12:58;;;;;;;3.67;3.40;;;7.60;99.90;;;;;;5237262;28;20203;-48
2022/09/21 03:15:28;;;;;;;5.10;3.30;;;7.60;99.90;;;;;;5208119;28;20201;-47
2022/09/21 03:17:59;;;;;;;4.23;3.40;;;7.60;99.90;;;;;;5218754;28;20921;-48
2022/09/21 03:20:33;;;;;;;4.13;3.80;;;7.60;99.90;;;;;;5234938;28;20237;-47
2022/09/21 03:23:04;;;;;;;3.00;2.80;;;7.70;99.90;;;;;;5231692;28;20207;-47
2022/09/21 03:25:34;;;;;;;3.50;3.20;;;7.80;99.90;;;;;;5214998;28;20934;-47
2022/09/21 03:28:05;;;;;;;3.50;3.30;;;7.80;99.90;;;;;;5232202;28;20439;-46
2022/09/21 03:30:36;;;;;;;4.47;3.60;;;7.90;99.90;;;;;;5235442;28;20190;-46
2022/09/21 03:33:07;;;;;;;2.87;2.67;;;7.90;99.90;;;;;;5224733;28;20206;-47
2022/09/21 03:35:38;;;;;;;2.77;2.67;;;7.90;99.90;;;;;;5232985;28;20178;-46
2022/09/21 03:38:09;;;;;;;9.27;3.20;;;7.80;99.90;;;;;;5222771;28;20435;-45
2022/09/21 03:40:39;;;;;;;3.90;2.87;;;7.70;99.90;;;;;;5222203;28;20434;-46
2022/09/21 03:43:10;;;;;;;2.80;2.60;;;7.70;99.90;;;;;;5232230;28;20189;-46
2022/09/21 03:45:41;;;;;;;7.47;2.77;;;7.70;99.90;;;;;;5220384;28;20183;-46
2022/09/21 03:48:13;;;;;;;3.73;2.60;;;7.70;99.90;;;;;;5220339;28;20183;-46
2022/09/21 03:50:44;;;;;;;3.03;2.50;;;7.70;99.90;;;;;;5209960;28;20434;-46
2022/09/21 03:53:15;;;;;;;3.17;2.97;;;7.60;99.90;;;;;;5223260;28;20485;-46
2022/09/21 03:55:45;;;;;;;3.20;2.53;;;7.60;99.90;;;;;;5228936;28;20175;-46
2022/09/21 03:58:17;;;;;;;3.20;2.93;;;7.60;99.90;;;;;;5231553;28;20428;-47
2022/09/21 04:00:47;;;;;;;2.80;2.70;;;7.60;99.90;;;;;;5228911;28;20183;-47
2022/09/21 04:03:18;;;;;;;2.40;2.20;;;7.50;99.90;;;;;;5224397;28;20451;-47
2022/09/21 04:05:48;;;;;;;3.20;2.93;;;7.50;99.90;;;;;;5229488;28;20241;-47
2022/09/21 04:08:19;;;;;;;2.90;2.80;;;7.50;99.90;;;;;;5228209;28;20210;-46
2022/09/21 04:10:50;;;;;;;3.10;2.90;;;7.50;99.90;;;;;;5227176;28;20639;-46
2022/09/21 04:13:21;;;;;;;3.57;2.80;;;7.50;99.90;;;;;;5231412;28;20233;-50
2022/09/21 04:15:51;;;;;;;4.50;3.20;;;7.50;99.90;;;;;;5226021;28;20847;-47
2022/09/21 04:18:22;;;;;;;2.60;2.40;;;7.40;99.90;;;;;;5234239;28;20191;-46
2022/09/21 04:20:52;;;;;;;3.17;2.97;;;7.40;99.90;;;;;;5230025;28;20201;-45
2022/09/21 04:23:23;;;;;;;3.30;3.10;;;7.30;99.90;;;;;;5223486;28;20191;-46
2022/09/21 04:25:54;;;;;;;5.77;2.70;;;7.30;99.90;;;;;;5224529;28;20206;-49
2022/09/21 04:28:24;;;;;;;3.93;3.23;;;7.30;99.90;;;;;;5229952;28;20187;-47
2022/09/21 04:30:55;;;;;;;3.30;3.13;;;7.30;99.90;;;;;;5229896;28;20413;-46
2022/09/21 04:33:26;;;;;;;5.70;2.70;;;7.30;99.90;;;;;;5230157;28;20207;-46
2022/09/21 04:35:56;;;;;;;4.23;3.17;;;7.30;99.90;;;;;;5224393;28;20203;-45
2022/09/21 04:38:27;;;;;;;4.20;3.83;;;7.30;99.90;;;;;;5220323;28;20186;-45
2022/09/21 04:40:58;;;;;;;5.50;3.13;;;7.30;99.90;;;;;;5225246;28;20683;-46
2022/09/21 04:43:28;;;;;;;5.30;4.07;;;7.30;99.90;;;;;;5231406;28;20194;-47
2022/09/21 04:46:07;;;;;;;3.67;3.17;;;7.30;99.90;;;;;;5231586;28;20425;-46
2022/09/21 04:48:39;;;;;;;3.83;3.30;;;7.30;99.90;;;;;;5231284;28;20178;-47
2022/09/21 04:51:11;;;;;;;12.43;3.70;;;7.30;99.90;;;;;;5235671;28;20427;-45
2022/09/21 04:53:43;;;;;;;3.00;2.70;;;7.30;99.90;;;;;;5231152;28;20456;-46
2022/09/21 04:56:14;;;;;;;3.07;2.77;;;7.30;99.90;;;;;;5226048;28;20529;-46
2022/09/21 04:58:45;;;;;;;3.70;3.40;;;7.30;99.90;;;;;;5225083;28;20420;-46
2022/09/21 05:01:15;;;;;;;3.40;3.20;;;7.40;99.90;;;;;;5228341;28;20543;-46
2022/09/21 05:03:46;;;;;;;3.77;3.50;;;7.40;99.90;;;;;;5216501;28;20283;-46
2022/09/21 05:06:16;;;;;;;3.73;3.40;;;7.30;99.90;;;;;;5227845;28;20217;-46
2022/09/21 05:11:39;;;;;;;3.70;3.03;;;7.40;99.90;;;;;;5228682;28;20207;-47
2022/09/21 05:14:10;;;;;;;6.30;3.10;;;7.40;99.90;;;;;;5222762;28;20465;-46
2022/09/21 05:16:41;;;;;;;3.17;2.70;;;7.40;99.90;;;;;;5221483;28;20537;-47
2022/09/21 05:19:11;;;;;;;3.20;3.00;;;7.40;99.90;;;;;;5228671;28;20567;-46
2022/09/21 05:21:42;;;;;;;4.30;3.47;;;7.40;99.90;;;;;;5225339;28;20678;-46
2022/09/21 05:24:13;;;;;;;7.93;3.30;;;7.50;99.90;;;;;;5222191;28;20183;-46
2022/09/21 05:26:43;;;;;;;3.30;3.10;;;7.40;99.90;;;;;;5228825;28;20222;-46
2022/09/21 05:29:14;;;;;;;7.30;4.00;;;7.50;99.90;;;;;;5225695;28;20249;-46
2022/09/21 05:31:56;;;;;;;5.67;4.10;;;7.50;99.90;;;;;;5230344;28;20191;-46
2022/09/21 05:34:39;;;;;;;6.23;3.53;;;7.60;99.90;;;;;;5221214;28;20203;-46
2022/09/21 05:37:22;;;;;;;5.20;4.07;;;7.60;99.90;;;;;;5235458;28;20820;-46
2022/09/21 05:39:53;;;;;;;3.30;3.07;;;7.70;99.90;;;;;;5228806;28;20945;-46
2022/09/21 05:42:23;;;;;;;5.57;3.30;;;7.70;99.90;;;;;;5225968;28;20438;-46
2022/09/21 05:44:54;;;;;;;3.13;2.90;;;7.80;99.90;;;;;;5224380;28;20445;-48
2022/09/21 05:47:38;;;;;;;2.83;2.73;;;7.90;99.90;;;;;;5224360;28;20207;-46
2022/09/21 05:50:36;;;;;;;4.13;3.20;;;8.00;99.90;;;;;;5210837;28;20190;-46
2022/09/21 05:53:25;;;;;;;4.37;3.30;;;8.20;99.90;;;;;;5228336;28;20472;-48
2022/09/21 05:56:06;;;;;;;3.10;2.90;;;8.60;99.90;;;;;;5234751;28;20445;-46
2022/09/21 05:58:48;;;;;;;4.13;3.20;;;8.80;99.90;;;;;;5230667;28;20779;-46
2022/09/21 06:01:28;;;;;;;3.90;3.60;;;9.00;99.90;;;;;;5229186;28;20440;-46
2022/09/21 06:04:00;;;;;;;2.93;2.80;;;9.00;99.90;;;;;;5229566;28;20445;-47
2022/09/21 06:06:30;;;;;;;3.40;3.20;;;9.10;99.90;;;;;;5229737;28;20465;-48
2022/09/21 06:09:01;;;;;;;3.27;2.70;;;9.10;99.90;;;;;;5222107;28;20445;-52
2022/09/21 06:11:32;;;;;;;2.80;2.63;;;9.10;99.90;;;;;;5223126;28;20706;-47
2022/09/21 06:14:02;;;;;;;4.00;2.70;;;9.20;99.90;;;;;;5226563;28;20313;-46
2022/09/21 06:16:40;;;;;;;3.67;3.37;;;9.30;99.90;;;;;;5223214;28;20214;-46
2022/09/21 06:19:12;;;;;;;3.30;3.00;;;9.40;99.90;;;;;;5225456;28;20198;-45
2022/09/21 06:21:42;;;;;;;10.00;2.93;;;9.50;99.90;;;;;;5226345;28;20437;-46
2022/09/21 06:24:13;;;;;;;3.43;2.83;;;9.60;99.90;;;;;;5227630;28;20444;-46
2022/09/21 06:26:43;;;;;;;3.47;3.20;;;9.60;99.90;;;;;;5229422;28;20650;-47
2022/09/21 06:29:14;;;;;;;3.83;3.63;;;9.70;99.90;;;;;;5224633;28;20587;-47
2022/09/21 06:31:45;;;;;;;2.67;2.33;;;9.80;99.90;;;;;;5233623;28;20539;-54
2022/09/21 06:34:15;;;;;;;3.70;3.10;;;9.90;99.90;;;;;;5228180;28;20211;-47
2022/09/21 06:36:46;;;;;;;4.70;4.27;;;10.10;99.90;;;;;;5224513;28;20209;-46
2022/09/21 06:39:17;;;;;;;4.23;3.77;;;10.10;99.90;;;;;;5223002;28;20483;-47
2022/09/21 06:41:47;;;;;;;8.43;3.57;;;10.10;99.90;;;;;;5229256;28;20185;-47
2022/09/21 06:44:18;;;;;;;11.00;4.70;;;10.20;99.90;;;;;;5224427;28;20667;-46
2022/09/21 06:46:48;;;;;;;5.87;3.10;;;10.30;99.90;;;;;;5224378;28;20305;-55
2022/09/21 06:49:19;;;;;;;15.50;4.30;;;10.40;99.90;;;;;;5209985;28;20616;-47
2022/09/21 06:51:49;;;;;;;7.87;4.70;;;10.60;99.90;;;;;;5219419;28;20277;-47
2022/09/21 06:54:20;;;;;;;7.53;4.63;;;10.70;99.90;;;;;;5227672;28;20194;-46
2022/09/21 06:56:50;;;;;;;7.00;4.10;;;10.80;99.90;;;;;;5226847;28;20666;-46
2022/09/21 06:59:21;;;;;;;5.07;4.57;;;10.90;99.90;;;;;;5224988;28;20187;-46
2022/09/21 07:01:54;;;;;;;7.97;4.57;;;11.00;99.90;;;;;;5220683;28;20473;-54
2022/09/21 07:04:25;;;;;;;9.50;4.20;;;11.10;99.90;;;;;;5214639;28;20654;-47
2022/09/21 07:06:56;;;;;;;10.37;4.73;;;11.40;99.90;;;;;;5216330;28;20458;-47
2022/09/21 07:09:27;;;;;;;8.93;4.30;;;11.90;99.90;;;;;;5219653;28;20194;-46
2022/09/21 07:11:58;;;;;;;7.00;3.80;;;12.20;99.90;;;;;;5222920;28;20426;-48
2022/09/21 07:14:29;;;;;;;5.80;3.47;;;12.20;99.90;;;;;;5223925;28;20186;-49
2022/09/21 07:16:59;;;;;;;3.83;2.90;;;12.40;99.90;;;;;;5222920;28;20437;-48
2022/09/21 07:19:30;;;;;;;3.83;3.50;;;12.60;99.90;;;;;;5227378;28;20171;-46
2022/09/21 07:22:01;;;;;;;4.20;3.63;;;13.00;99.90;;;;;;5226244;28;20183;-46
2022/09/21 07:24:32;;;;;;;10.00;4.30;;;13.50;99.90;;;;;;5225069;28;20237;-46
2022/09/21 07:27:02;;;;;;;6.80;4.57;;;14.10;99.90;;;;;;5225711;28;20274;-46
2022/09/21 07:29:33;;;;;;;6.43;4.10;;;14.90;99.90;;;;;;5223177;28;20602;-46
2022/09/21 07:32:04;;;;;;;7.70;4.00;;;15.10;99.90;;;;;;5224346;28;20187;-51
2022/09/21 07:34:36;;;;;;;7.23;4.40;;;14.80;99.90;;;;;;5220596;28;20213;-47
2022/09/21 07:37:06;;;;;;;4.10;3.70;;;14.60;99.90;;;;;;5218376;28;20195;-47
2022/09/21 07:39:37;;;;;;;3.73;3.40;;;14.50;99.90;;;;;;5227368;28;20501;-49
2022/09/21 07:42:08;;;;;;;4.60;3.57;;;14.40;99.90;;;;;;5226579;28;20198;-46
2022/09/21 07:44:39;;;;;;;2.80;2.60;;;14.40;99.90;;;;;;5222821;28;20446;-47
2022/09/21 07:47:10;;;;;;;10.97;3.40;;;14.40;99.90;;;;;;5226181;28;20202;-46
2022/09/21 07:49:41;;;;;;;5.33;3.47;;;14.50;99.90;;;;;;5225792;28;20893;-46
2022/09/21 07:52:14;;;;;;;8.77;4.00;;;14.80;99.90;;;;;;5220287;28;20466;-47
2022/09/21 07:54:45;;;;;;;9.90;4.27;;;15.00;99.90;;;;;;5215539;28;20444;-47
2022/09/21 08:00:05;;;;;;;6.70;3.50;;;14.80;99.90;;;;;;5226713;28;20186;-46
2022/09/21 08:02:36;;;;;;;3.70;3.07;;;14.70;99.90;;;;;;5223203;28;20437;-47
2022/09/21 08:05:07;;;;;;;7.83;3.67;;;14.70;99.90;;;;;;5216535;28;20428;-51
2022/09/21 08:07:38;;;;;;;4.97;3.63;;;14.70;99.90;;;;;;5217747;28;20202;-47
2022/09/21 08:10:08;;;;;;;7.57;3.03;;;14.70;99.90;;;;;;5225996;28;20191;-47
2022/09/21 08:12:39;;;;;;;7.43;3.77;;;14.80;99.90;;;;;;5219174;28;20195;-47
2022/09/21 08:15:10;;;;;;;4.07;2.57;;;14.70;99.90;;;;;;5219697;28;20556;-49
2022/09/21 08:17:40;;;;;;;2.97;2.67;;;14.60;99.90;;;;;;5222937;28;20199;-46
2022/09/21 08:20:11;;;;;;;5.40;3.57;;;14.50;99.90;;;;;;5220344;28;20179;-50
2022/09/21 08:22:42;;;;;;;3.60;3.30;;;14.60;99.90;;;;;;5227414;28;20184;-48
2022/09/21 08:25:13;;;;;;;3.90;3.13;;;14.50;99.90;;;;;;5223592;28;20491;-45
2022/09/21 08:27:43;;;;;;;7.20;3.00;;;14.40;99.90;;;;;;5225692;28;20296;-46
2022/09/21 08:30:14;;;;;;;4.27;3.27;;;14.40;99.90;;;;;;5221349;28;20526;-45
2022/09/21 08:32:44;;;;;;;5.07;3.03;;;14.50;99.90;;;;;;5221310;28;20313;-46
2022/09/21 08:35:15;;;;;;;4.40;3.37;;;14.40;99.90;;;;;;5222735;28;20175;-47
2022/09/21 08:37:45;;;;;;;5.23;3.27;;;14.20;99.90;;;;;;5220076;28;20195;-46
2022/09/21 08:40:18;;;;;;;7.33;3.77;;;14.10;99.90;;;;;;5208287;28;20187;-47
2022/09/21 08:42:54;;;;;;;2.97;2.87;;;14.10;99.90;;;;;;5231083;28;20278;-46
2022/09/21 08:45:36;;;;;;;3.70;3.30;;;14.30;99.90;;;;;;5227529;28;20520;-46
2022/09/21 08:48:18;;;;;;;9.10;3.73;;;14.30;99.90;;;;;;5227564;28;20437;-46
2022/09/21 08:50:56;;;;;;;4.23;3.40;;;14.60;99.90;;;;;;5224791;28;20434;-46
2022/09/21 08:53:33;;;;;;;4.70;2.63;;;14.70;99.90;;;;;;5226956;28;20460;-47
2022/09/21 08:56:04;;;;;;;3.80;3.10;;;14.90;99.90;;;;;;5227477;28;20444;-47
2022/09/21 08:58:36;;;;;;;5.90;3.00;;;15.00;99.90;;;;;;5224193;28;20437;-48
2022/09/21 09:01:23;;;;;;;6.23;3.30;;;15.30;99.90;;;;;;5216558;28;20648;-47
2022/09/21 09:04:42;;;;;;;3.33;3.13;;;15.60;99.90;;;;;;5216934;28;20520;-50
2022/09/21 09:07:29;;;;;;;3.00;2.77;;;15.80;99.90;;;;;;5168871;28;20458;-51
2022/09/21 09:10:21;;;;;;;5.03;3.30;;;16.00;99.90;;;;;;5224993;28;20425;-45
2022/09/21 09:13:35;;;;;;;4.67;3.27;;;16.20;99.90;;;;;;5227876;28;20485;-47
2022/09/21 09:16:14;;;;;;;3.67;3.37;;;16.00;99.90;;;;;;5221046;28;20453;-45
2022/09/21 09:19:03;;;;;;;7.63;4.40;;;15.90;99.90;;;;;;5219905;28;20430;-46
2022/09/21 09:21:39;;;;;;;9.70;4.20;;;15.90;99.90;;;;;;5219837;28;20802;-47
2022/09/21 09:24:18;;;;;;;11.50;3.27;;;15.80;99.90;;;;;;5227692;28;20540;-47
2022/09/21 09:26:59;;;;;;;5.87;3.17;;;15.70;99.90;;;;;;5225714;28;20474;-49
2022/09/21 09:29:32;;;;;;;4.40;3.33;;;15.60;99.90;;;;;;5227279;28;20819;-48
2022/09/21 09:32:04;;;;;;;5.60;3.00;;;15.50;99.90;;;;;;5219724;28;20413;-49
2022/09/21 09:34:43;;;;;;;2.63;2.53;;;15.70;99.90;;;;;;5221581;28;20445;-49
2022/09/21 09:37:15;;;;;;;4.20;2.60;;;15.50;99.90;;;;;;5233920;28;20449;-48
2022/09/21 09:39:56;;;;;;;4.30;2.30;;;15.40;99.90;;;;;;5227541;28;20498;-49
2022/09/21 09:42:35;;;;;;;4.33;2.67;;;15.20;99.90;;;;;;5219779;28;20449;-47
2022/09/21 09:45:25;;;;;;;2.93;2.43;;;15.10;99.90;;;;;;5225364;28;20516;-48
2022/09/21 09:48:23;;;;;;;2.97;2.77;;;14.80;99.90;;;;;;5214536;28;20530;-47
2022/09/21 09:50:54;;;;;;;3.03;2.70;;;14.50;99.90;;;;;;5215780;28;20433;-49
2022/09/21 09:53:26;;;;;;;2.13;2.03;;;14.20;99.90;;;;;;5227526;28;20518;-50
2022/09/21 09:55:57;;;;;;;2.80;2.60;;;14.10;99.90;;;;;;5227390;28;20804;-49
2022/09/21 09:58:47;;;;;;;3.60;2.93;;;14.10;99.90;;;;;;5225322;28;20429;-52
2022/09/21 10:01:38;;;;;;;2.43;2.27;;;14.30;99.90;;;;;;5225717;28;20425;-48
2022/09/21 10:04:14;;;;;;;3.40;3.10;;;14.30;99.90;;;;;;5223279;28;20437;-48
2022/09/21 10:06:44;;;;;;;6.53;3.03;;;14.40;99.90;;;;;;5222491;28;20995;-48
2022/09/21 10:09:24;;;;;;;2.50;2.40;;;14.50;99.90;;;;;;5222155;28;20429;-48
2022/09/21 10:12:14;;;;;;;2.23;2.13;;;14.70;99.90;;;;;;5220419;28;20183;-50
2022/09/21 10:14:53;;;;;;;2.50;2.30;;;14.70;99.90;;;;;;5224036;28;20422;-49
2022/09/21 10:17:24;;;;;;;5.70;2.87;;;14.80;99.90;;;;;;5225384;28;20519;-47
2022/09/21 10:19:59;;;;;;;2.80;1.57;;;14.90;99.90;;;;;;5222192;28;20502;-48
2022/09/21 10:22:30;;;;;;;3.13;1.63;;;15.10;99.90;;;;;;5225547;28;20785;-48
2022/09/21 10:25:04;;;;;;;2.30;1.27;;;15.30;99.90;;;;;;5215837;28;20430;-48
2022/09/21 10:27:41;;;;;;;1.20;1.20;;;15.40;99.90;;;;;;5221952;28;20248;-48
2022/09/21 10:30:37;;;;;;;2.63;2.43;;;15.70;99.90;;;;;;5224030;28;20536;-49
2022/09/21 10:33:21;;;;;;;10.53;2.37;;;16.10;99.90;;;;;;5223290;28;20841;-49
2022/09/21 10:35:52;;;;;;;8.47;2.20;;;16.60;99.90;;;;;;5214205;28;20448;-49
2022/09/21 10:38:28;;;;;;;7.30;1.40;;;16.90;99.90;;;;;;5218176;28;20421;-49
2022/09/21 10:40:59;;;;;;;4.73;1.63;;;17.20;99.90;;;;;;5224905;28;20241;-49
2022/09/21 10:43:40;;;;;;;5.13;1.90;;;17.20;99.90;;;;;;5224993;28;20472;-49
2022/09/21 10:46:12;;;;;;;5.30;1.03;;;17.20;99.90;;;;;;5217297;28;20203;-50
2022/09/21 10:48:46;;;;;;;10.93;2.50;;;16.90;99.90;;;;;;5225510;28;20453;-49
2022/09/21 10:51:27;;;;;;;7.23;1.40;;;16.70;99.90;;;;;;5219453;28;20442;-49
2022/09/21 10:53:58;;;;;;;1.93;1.77;;;16.40;99.90;;;;;;5223987;28;20469;-50
2022/09/21 10:56:29;;;;;;;1.50;1.10;;;16.20;99.90;;;;;;5225055;28;20444;-48
2022/09/21 10:59:24;;;;;;;1.27;1.00;;;16.20;99.90;;;;;;5225956;28;20210;-49
2022/09/21 11:01:57;;;;;;;2.97;1.27;;;16.40;99.90;;;;;;5214793;28;20179;-49
2022/09/21 11:04:39;;;;;;;0.97;0.93;;;16.40;99.90;;;;;;5219347;28;20487;-49
2022/09/21 11:07:20;;;;;;;1.50;0.87;;;16.40;99.90;;;;;;5207516;28;21074;-50
2022/09/21 11:10:18;;;;;;;1.17;0.60;;;16.30;99.90;;;;;;5215254;28;20429;-49
2022/09/21 11:13:11;;;;;;;2.60;1.40;;;16.40;99.90;;;;;;5219354;28;20524;-47
2022/09/21 11:16:17;;;;;;;2.83;1.80;;;16.70;99.90;;;;;;5224487;28;20429;-48
2022/09/21 11:19:03;;;;;;;4.33;2.10;;;17.00;98.90;;;;;;5220451;28;20430;-49
2022/09/21 11:21:43;;;;;;;1.63;1.53;;;17.30;98.20;;;;;;5219411;28;20433;-49
2022/09/21 11:24:22;;;;;;;1.30;1.30;;;17.60;97.80;;;;;;5220846;28;20500;-50
2022/09/21 11:26:58;;;;;;;1.23;0.93;;;17.50;97.30;;;;;;5218714;28;20548;-49
2022/09/21 11:30:18;;;;;;;1.03;1.03;;;17.40;96.20;;;;;;5216506;28;20512;-48
2022/09/21 11:33:27;;;;;;;1.00;1.00;;;17.10;96.60;;;;;;5219750;28;20465;-50
2022/09/21 11:36:26;;;;;;;1.03;0.90;;;16.80;95.30;;;;;;5214990;28;20448;-48
2022/09/21 11:39:17;;;;;;;0.80;0.80;;;16.60;95.60;;;;;;5223050;28;20418;-50
2022/09/21 11:42:09;;;;;;;1.37;0.93;;;16.50;96.80;;;;;;5220563;28;20448;-49
2022/09/21 11:44:57;;;;;;;7.80;4.43;;;16.40;97.80;;;;;;5218258;28;20444;-49
2022/09/21 11:47:45;;;;;;;1.40;1.40;;;16.50;98.00;;;;;;5213915;28;20518;-52
2022/09/21 11:50:43;;;;;;;1.97;1.33;;;16.50;97.70;;;;;;5226374;28;20479;-48
2022/09/21 11:53:22;;;;;;;0.97;0.97;;;16.30;98.20;;;;;;5224847;28;20485;-48
2022/09/21 11:56:13;;;;;;;7.80;3.90;;;16.30;98.40;;;;;;5205137;28;20450;-50
2022/09/21 11:59:08;;;;;;;2.07;1.93;;;16.30;99.00;;;;;;5214545;28;20433;-49
2022/09/21 12:02:14;;;;;;;3.40;2.57;;;16.20;99.00;;;;;;5222316;28;20429;-48
2022/09/21 12:05:18;;;;;;;2.10;1.90;;;16.20;99.30;;;;;;5213888;28;20529;-49
2022/09/21 12:08:11;;;;;;;2.60;2.20;;;16.10;99.90;;;;;;5224593;28;21043;-48
2022/09/21 12:11:03;;;;;;;1.70;1.60;;;15.90;99.90;;;;;;5215979;28;20517;-49
2022/09/21 12:13:39;;;;;;;0.77;0.77;;;15.70;99.90;;;;;;5226156;28;20895;-50
2022/09/21 12:16:26;;;;;;;1.60;1.50;;;15.70;99.90;;;;;;5228688;28;20987;-48
2022/09/21 12:19:04;;;;;;;2.20;0.60;;;15.60;99.90;;;;;;5223522;28;20535;-50
2022/09/21 12:21:52;;;;;;;0.90;0.73;;;15.70;99.90;;;;;;5225089;28;20465;-49
2022/09/21 12:24:29;;;;;;;1.80;0.67;;;15.80;98.80;;;;;;5213289;28;20432;-48
2022/09/21 12:27:06;;;;;;;0.70;0.70;;;15.80;99.30;;;;;;5216679;28;20465;-48
2022/09/21 12:29:48;;;;;;;0.93;0.73;;;16.00;98.80;;;;;;5220321;28;20440;-49
2022/09/21 12:32:50;;;;;;;0.80;0.80;;;16.10;95.30;;;;;;5228960;28;20433;-49
2022/09/21 12:35:38;;;;;;;0.83;0.73;;;16.20;95.40;;;;;;5226639;28;20915;-49
2022/09/21 12:38:44;;;;;;;2.00;0.87;;;16.20;96.50;;;;;;5226707;28;20811;-48
2022/09/21 12:41:44;;;;;;;0.90;0.90;;;16.20;96.60;;;;;;5219958;28;20448;-49
2022/09/21 12:44:50;;;;;;;0.80;0.80;;;16.20;97.20;;;;;;5212118;28;20604;-49
2022/09/21 12:47:50;;;;;;;1.07;1.07;;;16.20;97.60;;;;;;5218639;28;20968;-49
2022/09/21 12:50:40;;;;;;;3.80;3.50;;;16.30;97.90;;;;;;5222024;28;21618;-48
2022/09/21 12:53:18;;;;;;;2.87;1.47;;;16.30;97.90;;;;;;5227280;28;20460;-48
2022/09/21 12:56:05;;;;;;;1.03;0.70;;;16.20;98.10;;;;;;5227481;28;20460;-48
2022/09/21 12:58:45;;;;;;;1.30;1.20;;;16.10;98.30;;;;;;5223857;28;20456;-47
2022/09/21 13:01:22;;;;;;;13.30;6.37;;;16.00;98.60;;;;;;5222711;28;20455;-48
2022/09/21 13:04:11;;;;;;;1.37;1.17;;;15.80;99.10;;;;;;5217035;28;20525;-48
2022/09/21 13:07:07;;;;;;;1.30;1.20;;;15.70;99.60;;;;;;5215971;28;20483;-50
2022/09/21 13:09:41;;;;;;;2.00;0.90;;;15.80;99.70;;;;;;5223568;28;20434;-48
2022/09/21 13:12:22;;;;;;;0.70;0.70;;;15.80;97.70;;;;;;5222183;28;20440;-49
2022/09/21 13:15:03;;;;;;;0.80;0.77;;;15.70;96.90;;;;;;5229535;28;20421;-48
2022/09/21 13:17:35;;;;;;;1.73;0.83;;;15.70;96.70;;;;;;5228827;28;20484;-49
2022/09/21 13:20:17;;;;;;;1.23;1.23;;;15.80;97.00;;;;;;5226982;28;20860;-48
2022/09/21 13:22:48;;;;;;;0.60;0.60;;;15.90;96.00;;;;;;5211931;28;20449;-47
2022/09/21 13:25:22;;;;;;;1.13;1.03;;;15.90;95.70;;;;;;5219616;28;20528;-48
2022/09/21 13:28:07;;;;;;;1.80;1.47;;;16.00;96.00;;;;;;5222928;28;20815;-48
2022/09/21 13:31:05;;;;;;;1.80;1.33;;;16.10;96.20;;;;;;5222067;28;20442;-50
2022/09/21 13:33:39;;;;;;;1.80;1.67;;;16.30;96.40;;;;;;5225387;28;20465;-48
2022/09/21 13:36:42;;;;;;;0.87;0.87;;;16.30;96.70;;;;;;5227712;28;20436;-50
2022/09/21 13:39:19;;;;;;;1.30;1.20;;;16.30;97.20;;;;;;5205106;28;20457;-48
2022/09/21 13:41:50;;;;;;;0.80;0.80;;;16.30;97.10;;;;;;5224114;28;20431;-48
2022/09/21 13:44:35;;;;;;;1.83;0.83;;;16.40;96.50;;;;;;5226258;28;20448;-49
2022/09/21 13:47:07;;;;;;;2.60;2.00;;;16.20;96.00;;;;;;5218679;28;20221;-49
2022/09/21 13:49:43;;;;;;;4.43;3.20;;;16.00;95.80;;;;;;5227219;28;20860;-48